sensor_id;sensor_type;location;lat;lon;timestamp;pressure;altitude;pressure_sealevel;temperature;humidity
47913;BME280;33676;51.006;17.180;2023-04-16T00:02:21;99889.33;;;9.85;87.72
47913;BME280;33676;51.006;17.180;2023-04-16T00:04:50;99888.94;;;9.79;87.76
47913;BME280;33676;51.006;17.180;2023-04-16T00:07:18;99887.69;;;9.75;87.76
47913;BME280;33676;51.006;17.180;2023-04-16T00:09:51;99886.08;;;9.71;88.00
47913;BME280;33676;51.006;17.180;2023-04-16T00:12:20;99888.85;;;9.67;88.17
47913;BME280;33676;51.006;17.180;2023-04-16T00:15:07;99893.49;;;9.64;88.19
47913;BME280;33676;51.006;17.180;2023-04-16T00:17:36;99890.05;;;9.59;88.33
47913;BME280;33676;51.006;17.180;2023-04-16T00:20:05;99891.42;;;9.55;88.28
47913;BME280;33676;51.006;17.180;2023-04-16T00:22:34;99891.77;;;9.52;88.47
47913;BME280;33676;51.006;17.180;2023-04-16T00:25:02;99891.06;;;9.50;88.61
47913;BME280;33676;51.006;17.180;2023-04-16T00:30:46;99893.94;;;9.45;88.91
47913;BME280;33676;51.006;17.180;2023-04-16T00:33:14;99890.67;;;9.42;89.09
47913;BME280;33676;51.006;17.180;2023-04-16T00:35:45;99890.04;;;9.39;89.18
47913;BME280;33676;51.006;17.180;2023-04-16T00:38:14;99887.95;;;9.35;89.12
47913;BME280;33676;51.006;17.180;2023-04-16T00:40:43;99889.89;;;9.31;89.22
47913;BME280;33676;51.006;17.180;2023-04-16T00:49:44;99896.52;;;9.10;89.79
47913;BME280;33676;51.006;17.180;2023-04-16T00:52:13;99895.94;;;9.05;89.99
47913;BME280;33676;51.006;17.180;2023-04-16T00:54:42;99897.08;;;9.01;90.23
47913;BME280;33676;51.006;17.180;2023-04-16T00:57:13;99898.55;;;8.98;90.37
47913;BME280;33676;51.006;17.180;2023-04-16T00:59:42;99895.98;;;8.93;90.53
47913;BME280;33676;51.006;17.180;2023-04-16T01:02:10;99897.04;;;8.86;90.68
47913;BME280;33676;51.006;17.180;2023-04-16T01:04:41;99903.62;;;8.80;90.86
47913;BME280;33676;51.006;17.180;2023-04-16T01:07:09;99904.20;;;8.74;91.07
47913;BME280;33676;51.006;17.180;2023-04-16T01:09:38;99910.02;;;8.71;91.31
47913;BME280;33676;51.006;17.180;2023-04-16T01:12:06;99913.79;;;8.68;91.47
47913;BME280;33676;51.006;17.180;2023-04-16T01:14:35;99913.57;;;8.63;91.55
47913;BME280;33676;51.006;17.180;2023-04-16T01:17:04;99916.48;;;8.59;91.68
47913;BME280;33676;51.006;17.180;2023-04-16T01:19:59;99920.24;;;8.56;91.76
47913;BME280;33676;51.006;17.180;2023-04-16T01:22:28;99919.45;;;8.52;91.96
47913;BME280;33676;51.006;17.180;2023-04-16T01:24:56;99919.63;;;8.50;91.99
47913;BME280;33676;51.006;17.180;2023-04-16T01:27:25;99922.02;;;8.48;92.03
47913;BME280;33676;51.006;17.180;2023-04-16T01:29:54;99916.98;;;8.46;92.10
47913;BME280;33676;51.006;17.180;2023-04-16T01:32:23;99921.39;;;8.43;92.11
47913;BME280;33676;51.006;17.180;2023-04-16T01:34:51;99917.55;;;8.38;92.12
47913;BME280;33676;51.006;17.180;2023-04-16T01:37:20;99922.52;;;8.35;92.25
47913;BME280;33676;51.006;17.180;2023-04-16T01:39:48;99918.50;;;8.30;92.32
47913;BME280;33676;51.006;17.180;2023-04-16T01:42:16;99922.70;;;8.25;92.27
47913;BME280;33676;51.006;17.180;2023-04-16T01:44:46;99928.81;;;8.20;92.28
47913;BME280;33676;51.006;17.180;2023-04-16T01:47:14;99932.10;;;8.16;92.31
47913;BME280;33676;51.006;17.180;2023-04-16T01:49:43;99939.75;;;8.11;92.36
47913;BME280;33676;51.006;17.180;2023-04-16T01:52:12;99940.61;;;8.07;92.10
47913;BME280;33676;51.006;17.180;2023-04-16T01:54:41;99936.39;;;8.02;91.97
47913;BME280;33676;51.006;17.180;2023-04-16T01:57:09;99934.52;;;7.97;92.11
47913;BME280;33676;51.006;17.180;2023-04-16T01:59:38;99937.02;;;7.91;92.26
47913;BME280;33676;51.006;17.180;2023-04-16T02:02:11;99930.47;;;7.85;92.36
47913;BME280;33676;51.006;17.180;2023-04-16T02:04:44;99934.02;;;7.80;92.62
47913;BME280;33676;51.006;17.180;2023-04-16T02:07:14;99935.38;;;7.76;92.91
47913;BME280;33676;51.006;17.180;2023-04-16T02:09:42;99936.44;;;7.73;93.06
47913;BME280;33676;51.006;17.180;2023-04-16T02:12:11;99933.49;;;7.71;93.22
47913;BME280;33676;51.006;17.180;2023-04-16T02:14:39;99933.85;;;7.68;93.26
47913;BME280;33676;51.006;17.180;2023-04-16T02:17:09;99935.61;;;7.65;93.35
47913;BME280;33676;51.006;17.180;2023-04-16T02:19:37;99935.48;;;7.62;93.49
47913;BME280;33676;51.006;17.180;2023-04-16T02:22:06;99935.16;;;7.59;93.55
47913;BME280;33676;51.006;17.180;2023-04-16T02:24:34;99941.90;;;7.58;93.82
47913;BME280;33676;51.006;17.180;2023-04-16T02:27:03;99943.09;;;7.55;93.98
47913;BME280;33676;51.006;17.180;2023-04-16T02:29:31;99941.15;;;7.53;94.15
47913;BME280;33676;51.006;17.180;2023-04-16T02:31:59;99946.48;;;7.52;94.36
47913;BME280;33676;51.006;17.180;2023-04-16T02:34:28;99945.38;;;7.50;94.65
47913;BME280;33676;51.006;17.180;2023-04-16T02:36:56;99949.09;;;7.49;94.70
47913;BME280;33676;51.006;17.180;2023-04-16T02:39:25;99953.45;;;7.49;95.03
47913;BME280;33676;51.006;17.180;2023-04-16T02:41:54;99954.00;;;7.49;95.17
47913;BME280;33676;51.006;17.180;2023-04-16T02:44:23;99959.02;;;7.49;95.43
47913;BME280;33676;51.006;17.180;2023-04-16T02:46:51;99962.06;;;7.48;95.39
47913;BME280;33676;51.006;17.180;2023-04-16T02:49:19;99961.09;;;7.47;95.30
47913;BME280;33676;51.006;17.180;2023-04-16T02:51:48;99960.66;;;7.46;95.30
47913;BME280;33676;51.006;17.180;2023-04-16T02:54:16;99966.33;;;7.44;95.58
47913;BME280;33676;51.006;17.180;2023-04-16T02:56:45;99965.77;;;7.42;95.68
47913;BME280;33676;51.006;17.180;2023-04-16T02:59:13;99964.87;;;7.38;95.69
47913;BME280;33676;51.006;17.180;2023-04-16T03:01:42;99966.99;;;7.35;95.61
47913;BME280;33676;51.006;17.180;2023-04-16T03:04:11;99964.99;;;7.30;95.72
47913;BME280;33676;51.006;17.180;2023-04-16T03:06:39;99969.15;;;7.28;95.99
47913;BME280;33676;51.006;17.180;2023-04-16T03:09:08;99973.70;;;7.26;96.24
47913;BME280;33676;51.006;17.180;2023-04-16T03:11:36;99978.16;;;7.24;96.45
47913;BME280;33676;51.006;17.180;2023-04-16T03:14:05;99978.79;;;7.23;96.57
47913;BME280;33676;51.006;17.180;2023-04-16T03:16:33;99979.02;;;7.22;96.61
47913;BME280;33676;51.006;17.180;2023-04-16T03:19:01;99986.50;;;7.22;96.85
47913;BME280;33676;51.006;17.180;2023-04-16T03:21:30;99987.26;;;7.21;96.95
47913;BME280;33676;51.006;17.180;2023-04-16T03:23:58;99989.51;;;7.18;96.93
47913;BME280;33676;51.006;17.180;2023-04-16T03:26:27;99987.76;;;7.16;97.04
47913;BME280;33676;51.006;17.180;2023-04-16T03:28:55;99988.30;;;7.14;97.01
47913;BME280;33676;51.006;17.180;2023-04-16T03:31:24;99992.40;;;7.12;97.36
47913;BME280;33676;51.006;17.180;2023-04-16T03:33:55;99998.30;;;7.09;97.58
47913;BME280;33676;51.006;17.180;2023-04-16T03:36:23;99997.61;;;7.07;97.32
47913;BME280;33676;51.006;17.180;2023-04-16T03:38:53;100002.14;;;7.04;97.37
47913;BME280;33676;51.006;17.180;2023-04-16T03:41:22;100005.81;;;7.01;97.23
47913;BME280;33676;51.006;17.180;2023-04-16T03:43:50;100007.64;;;6.97;97.11
47913;BME280;33676;51.006;17.180;2023-04-16T03:46:18;100012.27;;;6.93;97.07
47913;BME280;33676;51.006;17.180;2023-04-16T03:48:47;100013.55;;;6.89;97.09
47913;BME280;33676;51.006;17.180;2023-04-16T03:51:15;100017.46;;;6.85;97.02
47913;BME280;33676;51.006;17.180;2023-04-16T03:53:43;100020.55;;;6.83;97.12
47913;BME280;33676;51.006;17.180;2023-04-16T03:56:12;100025.34;;;6.82;97.40
47913;BME280;33676;51.006;17.180;2023-04-16T03:58:40;100029.38;;;6.82;97.45
47913;BME280;33676;51.006;17.180;2023-04-16T04:01:09;100036.09;;;6.82;97.61
47913;BME280;33676;51.006;17.180;2023-04-16T04:03:37;100036.95;;;6.83;97.81
47913;BME280;33676;51.006;17.180;2023-04-16T04:06:07;100038.52;;;6.82;97.75
47913;BME280;33676;51.006;17.180;2023-04-16T04:08:36;100038.42;;;6.81;97.76
47913;BME280;33676;51.006;17.180;2023-04-16T04:11:04;100039.28;;;6.81;97.97
47913;BME280;33676;51.006;17.180;2023-04-16T04:13:32;100043.33;;;6.83;98.16
47913;BME280;33676;51.006;17.180;2023-04-16T04:16:01;100043.18;;;6.85;98.51
47913;BME280;33676;51.006;17.180;2023-04-16T04:18:29;100043.15;;;6.89;98.57
47913;BME280;33676;51.006;17.180;2023-04-16T04:20:57;100044.12;;;6.92;98.72
47913;BME280;33676;51.006;17.180;2023-04-16T04:23:26;100044.81;;;6.95;98.80
47913;BME280;33676;51.006;17.180;2023-04-16T04:25:54;100047.42;;;6.97;98.80
47913;BME280;33676;51.006;17.180;2023-04-16T04:28:22;100050.20;;;7.00;99.13
47913;BME280;33676;51.006;17.180;2023-04-16T04:30:51;100053.27;;;7.04;99.17
47913;BME280;33676;51.006;17.180;2023-04-16T04:33:19;100053.21;;;7.07;99.40
47913;BME280;33676;51.006;17.180;2023-04-16T04:35:48;100053.66;;;7.11;99.47
47913;BME280;33676;51.006;17.180;2023-04-16T04:38:16;100057.48;;;7.16;99.72
47913;BME280;33676;51.006;17.180;2023-04-16T04:40:47;100056.23;;;7.21;99.73
47913;BME280;33676;51.006;17.180;2023-04-16T04:43:16;100055.84;;;7.27;99.89
47913;BME280;33676;51.006;17.180;2023-04-16T04:45:44;100062.33;;;7.34;99.97
47913;BME280;33676;51.006;17.180;2023-04-16T04:48:14;100066.92;;;7.41;100.00
47913;BME280;33676;51.006;17.180;2023-04-16T04:50:43;100067.32;;;7.47;100.00
47913;BME280;33676;51.006;17.180;2023-04-16T04:53:12;100070.21;;;7.53;100.00
47913;BME280;33676;51.006;17.180;2023-04-16T04:55:43;100072.70;;;7.57;100.00
47913;BME280;33676;51.006;17.180;2023-04-16T04:58:11;100077.51;;;7.61;99.91
47913;BME280;33676;51.006;17.180;2023-04-16T05:00:40;100080.77;;;7.67;99.91
47913;BME280;33676;51.006;17.180;2023-04-16T05:03:11;100082.70;;;7.72;99.76
47913;BME280;33676;51.006;17.180;2023-04-16T05:05:39;100082.39;;;7.76;99.61
47913;BME280;33676;51.006;17.180;2023-04-16T05:08:08;100085.67;;;7.81;99.65
47913;BME280;33676;51.006;17.180;2023-04-16T05:10:37;100089.72;;;7.88;99.73
47913;BME280;33676;51.006;17.180;2023-04-16T05:13:05;100095.30;;;7.92;99.86
47913;BME280;33676;51.006;17.180;2023-04-16T05:15:33;100100.44;;;7.99;99.88
47913;BME280;33676;51.006;17.180;2023-04-16T05:18:02;100100.77;;;8.04;99.85
47913;BME280;33676;51.006;17.180;2023-04-16T05:20:30;100101.98;;;8.09;99.79
47913;BME280;33676;51.006;17.180;2023-04-16T05:22:58;100103.27;;;8.13;99.76
47913;BME280;33676;51.006;17.180;2023-04-16T05:25:27;100107.49;;;8.20;99.91
47913;BME280;33676;51.006;17.180;2023-04-16T05:27:55;100110.31;;;8.26;99.91
47913;BME280;33676;51.006;17.180;2023-04-16T05:30:24;100111.38;;;8.34;100.00
47913;BME280;33676;51.006;17.180;2023-04-16T05:32:52;100110.93;;;8.40;99.96
47913;BME280;33676;51.006;17.180;2023-04-16T05:35:21;100112.58;;;8.46;100.00
47913;BME280;33676;51.006;17.180;2023-04-16T05:37:49;100110.33;;;8.53;99.99
47913;BME280;33676;51.006;17.180;2023-04-16T05:40:17;100117.38;;;8.59;100.00
47913;BME280;33676;51.006;17.180;2023-04-16T05:42:46;100117.08;;;8.66;99.99
47913;BME280;33676;51.006;17.180;2023-04-16T05:45:14;100122.48;;;8.73;100.00
47913;BME280;33676;51.006;17.180;2023-04-16T05:47:43;100127.55;;;8.78;99.95
47913;BME280;33676;51.006;17.180;2023-04-16T05:50:13;100133.55;;;8.82;99.83
47913;BME280;33676;51.006;17.180;2023-04-16T05:52:41;100136.02;;;8.86;99.88
47913;BME280;33676;51.006;17.180;2023-04-16T05:55:10;100137.85;;;8.89;99.94
47913;BME280;33676;51.006;17.180;2023-04-16T05:57:38;100139.41;;;8.94;99.95
47913;BME280;33676;51.006;17.180;2023-04-16T06:00:07;100138.55;;;8.98;99.99
47913;BME280;33676;51.006;17.180;2023-04-16T06:02:36;100140.03;;;9.04;100.00
47913;BME280;33676;51.006;17.180;2023-04-16T06:05:05;100141.19;;;9.10;100.00
47913;BME280;33676;51.006;17.180;2023-04-16T06:07:33;100147.48;;;9.14;100.00
47913;BME280;33676;51.006;17.180;2023-04-16T06:10:02;100151.04;;;9.20;100.00
47913;BME280;33676;51.006;17.180;2023-04-16T06:12:30;100160.59;;;9.31;100.00
47913;BME280;33676;51.006;17.180;2023-04-16T06:14:59;100162.92;;;9.41;100.00
47913;BME280;33676;51.006;17.180;2023-04-16T06:17:28;100164.54;;;9.54;100.00
47913;BME280;33676;51.006;17.180;2023-04-16T06:19:56;100164.33;;;9.69;100.00
47913;BME280;33676;51.006;17.180;2023-04-16T06:22:25;100168.45;;;9.81;100.00
47913;BME280;33676;51.006;17.180;2023-04-16T06:24:55;100167.93;;;9.89;100.00
47913;BME280;33676;51.006;17.180;2023-04-16T06:27:24;100175.91;;;9.99;100.00
47913;BME280;33676;51.006;17.180;2023-04-16T06:29:53;100173.73;;;10.12;100.00
47913;BME280;33676;51.006;17.180;2023-04-16T06:32:21;100179.23;;;10.22;99.87
47913;BME280;33676;51.006;17.180;2023-04-16T06:34:50;100174.80;;;10.36;99.99
47913;BME280;33676;51.006;17.180;2023-04-16T06:37:18;100177.80;;;10.53;100.00
47913;BME280;33676;51.006;17.180;2023-04-16T06:39:47;100178.14;;;10.69;100.00
47913;BME280;33676;51.006;17.180;2023-04-16T06:42:15;100179.15;;;10.84;100.00
47913;BME280;33676;51.006;17.180;2023-04-16T06:44:54;100182.33;;;10.99;99.81
47913;BME280;33676;51.006;17.180;2023-04-16T06:47:22;100183.98;;;11.13;99.12
47913;BME280;33676;51.006;17.180;2023-04-16T06:49:50;100179.73;;;11.26;99.13
47913;BME280;33676;51.006;17.180;2023-04-16T06:52:19;100175.67;;;11.39;99.02
47913;BME280;33676;51.006;17.180;2023-04-16T06:54:47;100178.09;;;11.54;98.87
47913;BME280;33676;51.006;17.180;2023-04-16T06:57:16;100177.16;;;11.67;98.56
47913;BME280;33676;51.006;17.180;2023-04-16T06:59:44;100175.14;;;11.81;98.32
47913;BME280;33676;51.006;17.180;2023-04-16T07:02:13;100176.48;;;11.92;98.11
47913;BME280;33676;51.006;17.180;2023-04-16T07:04:41;100181.19;;;12.05;98.06
47913;BME280;33676;51.006;17.180;2023-04-16T07:07:10;100181.02;;;12.15;97.63
47913;BME280;33676;51.006;17.180;2023-04-16T07:09:38;100185.58;;;12.25;97.57
47913;BME280;33676;51.006;17.180;2023-04-16T07:12:06;100192.02;;;12.35;97.38
47913;BME280;33676;51.006;17.180;2023-04-16T07:14:35;100194.95;;;12.42;96.37
47913;BME280;33676;51.006;17.180;2023-04-16T07:17:03;100197.77;;;12.46;95.91
47913;BME280;33676;51.006;17.180;2023-04-16T07:19:32;100195.84;;;12.53;96.17
47913;BME280;33676;51.006;17.180;2023-04-16T07:22:00;100201.73;;;12.60;95.68
47913;BME280;33676;51.006;17.180;2023-04-16T07:24:29;100200.14;;;12.63;95.63
47913;BME280;33676;51.006;17.180;2023-04-16T07:26:57;100202.11;;;12.68;95.58
47913;BME280;33676;51.006;17.180;2023-04-16T07:29:26;100208.97;;;12.72;95.48
47913;BME280;33676;51.006;17.180;2023-04-16T07:31:54;100210.98;;;12.77;95.25
47913;BME280;33676;51.006;17.180;2023-04-16T07:34:23;100214.20;;;12.80;94.96
47913;BME280;33676;51.006;17.180;2023-04-16T07:36:51;100212.95;;;12.82;94.86
47913;BME280;33676;51.006;17.180;2023-04-16T07:39:19;100216.82;;;12.86;94.83
47913;BME280;33676;51.006;17.180;2023-04-16T07:41:48;100217.14;;;12.94;94.96
47913;BME280;33676;51.006;17.180;2023-04-16T07:44:16;100215.77;;;12.98;94.40
47913;BME280;33676;51.006;17.180;2023-04-16T07:46:45;100215.61;;;13.01;94.13
47913;BME280;33676;51.006;17.180;2023-04-16T07:49:14;100218.48;;;13.08;94.21
47913;BME280;33676;51.006;17.180;2023-04-16T07:51:43;100221.45;;;13.15;94.48
47913;BME280;33676;51.006;17.180;2023-04-16T07:54:12;100222.50;;;13.17;94.01
47913;BME280;33676;51.006;17.180;2023-04-16T07:56:40;100221.86;;;13.16;93.44
47913;BME280;33676;51.006;17.180;2023-04-16T07:59:09;100220.52;;;13.15;93.41
47913;BME280;33676;51.006;17.180;2023-04-16T08:01:52;100225.33;;;13.17;93.35
47913;BME280;33676;51.006;17.180;2023-04-16T08:04:21;100227.41;;;13.19;93.36
47913;BME280;33676;51.006;17.180;2023-04-16T08:06:53;100227.85;;;13.24;93.17
47913;BME280;33676;51.006;17.180;2023-04-16T08:09:25;100226.77;;;13.26;92.97
47913;BME280;33676;51.006;17.180;2023-04-16T08:11:54;100224.54;;;13.28;92.70
47913;BME280;33676;51.006;17.180;2023-04-16T08:14:23;100225.40;;;13.28;92.71
47913;BME280;33676;51.006;17.180;2023-04-16T08:16:51;100228.00;;;13.28;93.06
47913;BME280;33676;51.006;17.180;2023-04-16T08:19:20;100228.11;;;13.31;92.99
47913;BME280;33676;51.006;17.180;2023-04-16T08:21:49;100229.28;;;13.32;92.71
47913;BME280;33676;51.006;17.180;2023-04-16T08:24:17;100232.36;;;13.36;92.87
47913;BME280;33676;51.006;17.180;2023-04-16T08:26:46;100235.27;;;13.43;92.68
47913;BME280;33676;51.006;17.180;2023-04-16T08:29:14;100236.33;;;13.45;92.30
47913;BME280;33676;51.006;17.180;2023-04-16T08:31:43;100235.20;;;13.51;92.44
47913;BME280;33676;51.006;17.180;2023-04-16T08:34:12;100235.66;;;13.61;92.54
47913;BME280;33676;51.006;17.180;2023-04-16T08:36:41;100238.90;;;13.72;92.45
47913;BME280;33676;51.006;17.180;2023-04-16T08:39:09;100245.77;;;13.83;92.22
47913;BME280;33676;51.006;17.180;2023-04-16T08:41:44;100249.30;;;13.93;92.27
47913;BME280;33676;51.006;17.180;2023-04-16T08:44:27;100254.69;;;14.01;92.22
47913;BME280;33676;51.006;17.180;2023-04-16T08:46:57;100259.23;;;14.01;91.50
47913;BME280;33676;51.006;17.180;2023-04-16T08:49:31;100256.98;;;13.99;90.95
47913;BME280;33676;51.006;17.180;2023-04-16T08:52:05;100259.97;;;14.08;91.28
47913;BME280;33676;51.006;17.180;2023-04-16T08:54:48;100258.09;;;14.24;91.59
47913;BME280;33676;51.006;17.180;2023-04-16T08:57:58;100258.33;;;14.46;91.65
47913;BME280;33676;51.006;17.180;2023-04-16T09:00:28;100255.05;;;14.64;91.30
47913;BME280;33676;51.006;17.180;2023-04-16T09:02:58;100255.98;;;14.71;90.54
47913;BME280;33676;51.006;17.180;2023-04-16T09:05:28;100258.27;;;14.71;89.62
47913;BME280;33676;51.006;17.180;2023-04-16T09:07:56;100264.45;;;14.72;89.33
47913;BME280;33676;51.006;17.180;2023-04-16T09:10:26;100266.75;;;14.74;89.29
47913;BME280;33676;51.006;17.180;2023-04-16T09:12:55;100268.71;;;14.78;88.90
47913;BME280;33676;51.006;17.180;2023-04-16T09:15:24;100267.60;;;14.83;88.44
47913;BME280;33676;51.006;17.180;2023-04-16T09:17:53;100266.09;;;15.01;89.11
47913;BME280;33676;51.006;17.180;2023-04-16T09:20:23;100262.39;;;15.31;89.24
47913;BME280;33676;51.006;17.180;2023-04-16T09:22:52;100265.35;;;15.71;89.88
47913;BME280;33676;51.006;17.180;2023-04-16T09:25:20;100264.04;;;16.14;89.91
47913;BME280;33676;51.006;17.180;2023-04-16T09:27:50;100263.92;;;16.51;89.15
47913;BME280;33676;51.006;17.180;2023-04-16T09:30:24;100261.09;;;16.90;89.16
47913;BME280;33676;51.006;17.180;2023-04-16T09:33:13;100269.45;;;17.17;87.95
47913;BME280;33676;51.006;17.180;2023-04-16T09:35:46;100275.42;;;17.23;85.64
47913;BME280;33676;51.006;17.180;2023-04-16T09:38:15;100276.86;;;17.19;84.67
47913;BME280;33676;51.006;17.180;2023-04-16T09:40:44;100280.05;;;17.20;83.79
47913;BME280;33676;51.006;17.180;2023-04-16T09:43:17;100281.36;;;17.18;82.45
47913;BME280;33676;51.006;17.180;2023-04-16T09:45:49;100284.67;;;17.12;81.43
47913;BME280;33676;51.006;17.180;2023-04-16T09:48:29;100285.17;;;17.11;80.90
47913;BME280;33676;51.006;17.180;2023-04-16T09:51:00;100292.37;;;17.16;80.53
47913;BME280;33676;51.006;17.180;2023-04-16T09:53:30;100287.84;;;17.24;80.62
47913;BME280;33676;51.006;17.180;2023-04-16T09:56:03;100290.31;;;17.44;80.55
47913;BME280;33676;51.006;17.180;2023-04-16T09:58:35;100290.45;;;17.51;79.89
47913;BME280;33676;51.006;17.180;2023-04-16T10:01:10;100290.59;;;17.73;80.53
47913;BME280;33676;51.006;17.180;2023-04-16T10:03:39;100293.17;;;18.04;80.50
47913;BME280;33676;51.006;17.180;2023-04-16T10:06:17;100296.36;;;18.34;80.09
47913;BME280;33676;51.006;17.180;2023-04-16T10:08:52;100292.79;;;18.47;78.65
47913;BME280;33676;51.006;17.180;2023-04-16T10:11:21;100287.38;;;18.48;77.75
47913;BME280;33676;51.006;17.180;2023-04-16T10:13:50;100291.26;;;18.50;77.70
47913;BME280;33676;51.006;17.180;2023-04-16T10:16:21;100287.90;;;18.58;77.84
47913;BME280;33676;51.006;17.180;2023-04-16T10:18:50;100289.48;;;18.68;77.66
47913;BME280;33676;51.006;17.180;2023-04-16T10:21:20;100286.77;;;18.73;76.87
47913;BME280;33676;51.006;17.180;2023-04-16T10:23:50;100291.49;;;18.69;75.75
47913;BME280;33676;51.006;17.180;2023-04-16T10:26:20;100289.86;;;18.65;75.37
47913;BME280;33676;51.006;17.180;2023-04-16T10:28:48;100290.95;;;18.70;75.38
47913;BME280;33676;51.006;17.180;2023-04-16T10:31:17;100290.02;;;18.83;75.38
47913;BME280;33676;51.006;17.180;2023-04-16T10:33:46;100294.09;;;18.96;75.17
47913;BME280;33676;51.006;17.180;2023-04-16T10:36:22;100295.41;;;19.08;74.75
47913;BME280;33676;51.006;17.180;2023-04-16T10:38:52;100292.36;;;19.45;75.42
47913;BME280;33676;51.006;17.180;2023-04-16T10:41:25;100290.73;;;19.77;75.28
47913;BME280;33676;51.006;17.180;2023-04-16T10:44:04;100286.00;;;19.81;74.62
47913;BME280;33676;51.006;17.180;2023-04-16T10:46:42;100285.64;;;19.89;74.19
47913;BME280;33676;51.006;17.180;2023-04-16T10:49:21;100283.73;;;20.30;74.84
47913;BME280;33676;51.006;17.180;2023-04-16T10:51:57;100286.95;;;20.79;74.55
47913;BME280;33676;51.006;17.180;2023-04-16T10:56:58;100293.60;;;21.64;73.20
47913;BME280;33676;51.006;17.180;2023-04-16T10:59:35;100291.13;;;21.75;72.45
47913;BME280;33676;51.006;17.180;2023-04-16T11:02:15;100293.04;;;21.82;72.01
47913;BME280;33676;51.006;17.180;2023-04-16T11:04:47;100296.45;;;22.18;71.63
47913;BME280;33676;51.006;17.180;2023-04-16T11:07:33;100298.48;;;22.34;71.23
47913;BME280;33676;51.006;17.180;2023-04-16T11:10:04;100296.89;;;22.29;70.36
47913;BME280;33676;51.006;17.180;2023-04-16T11:12:41;100297.75;;;22.24;70.12
47913;BME280;33676;51.006;17.180;2023-04-16T11:15:16;100298.05;;;22.20;69.81
47913;BME280;33676;51.006;17.180;2023-04-16T11:17:50;100297.42;;;22.14;68.34
47913;BME280;33676;51.006;17.180;2023-04-16T11:20:24;100297.54;;;21.92;67.58
47913;BME280;33676;51.006;17.180;2023-04-16T11:22:55;100297.90;;;21.66;67.25
47913;BME280;33676;51.006;17.180;2023-04-16T11:25:27;100297.38;;;21.43;66.76
47913;BME280;33676;51.006;17.180;2023-04-16T11:28:01;100294.61;;;21.20;66.56
47913;BME280;33676;51.006;17.180;2023-04-16T11:30:32;100299.02;;;21.00;66.64
47913;BME280;33676;51.006;17.180;2023-04-16T11:33:07;100299.85;;;20.77;66.35
47913;BME280;33676;51.006;17.180;2023-04-16T11:35:37;100297.09;;;20.54;66.47
47913;BME280;33676;51.006;17.180;2023-04-16T11:38:08;100298.73;;;20.37;66.69
47913;BME280;33676;51.006;17.180;2023-04-16T11:40:37;100302.95;;;20.23;66.75
47913;BME280;33676;51.006;17.180;2023-04-16T11:43:15;100310.28;;;20.07;66.88
47913;BME280;33676;51.006;17.180;2023-04-16T11:46:03;100311.21;;;19.95;66.95
47913;BME280;33676;51.006;17.180;2023-04-16T11:48:54;100311.67;;;19.88;67.17
47913;BME280;33676;51.006;17.180;2023-04-16T11:51:23;100310.92;;;19.78;66.52
47913;BME280;33676;51.006;17.180;2023-04-16T11:53:53;100312.87;;;19.69;66.65
47913;BME280;33676;51.006;17.180;2023-04-16T11:56:31;100313.39;;;19.70;67.46
47913;BME280;33676;51.006;17.180;2023-04-16T12:01:49;100308.11;;;19.79;67.46
47913;BME280;33676;51.006;17.180;2023-04-16T12:04:20;100308.70;;;19.81;67.36
47913;BME280;33676;51.006;17.180;2023-04-16T12:07:14;100307.48;;;19.89;67.58
47913;BME280;33676;51.006;17.180;2023-04-16T12:09:43;100310.26;;;19.99;67.72
47913;BME280;33676;51.006;17.180;2023-04-16T12:14:55;100310.80;;;20.09;67.04
47913;BME280;33676;51.006;17.180;2023-04-16T12:17:26;100313.22;;;20.14;67.37
47913;BME280;33676;51.006;17.180;2023-04-16T12:20:00;100311.99;;;20.21;67.37
47913;BME280;33676;51.006;17.180;2023-04-16T12:25:10;100311.38;;;20.31;66.82
47913;BME280;33676;51.006;17.180;2023-04-16T12:27:48;100312.23;;;20.34;66.59
47913;BME280;33676;51.006;17.180;2023-04-16T12:30:23;100310.49;;;20.39;66.23
47913;BME280;33676;51.006;17.180;2023-04-16T12:33:18;100306.02;;;20.43;66.17
47913;BME280;33676;51.006;17.180;2023-04-16T12:35:48;100306.86;;;20.47;66.24
47913;BME280;33676;51.006;17.180;2023-04-16T12:38:17;100306.10;;;20.52;66.21
47913;BME280;33676;51.006;17.180;2023-04-16T12:40:46;100304.45;;;20.57;66.16
47913;BME280;33676;51.006;17.180;2023-04-16T12:43:14;100305.80;;;20.59;66.17
47913;BME280;33676;51.006;17.180;2023-04-16T12:45:43;100308.73;;;20.61;66.18
47913;BME280;33676;51.006;17.180;2023-04-16T12:48:12;100308.63;;;20.65;66.15
47913;BME280;33676;51.006;17.180;2023-04-16T12:50:40;100309.84;;;20.69;65.88
47913;BME280;33676;51.006;17.180;2023-04-16T12:53:11;100310.89;;;20.74;65.84
47913;BME280;33676;51.006;17.180;2023-04-16T12:55:40;100310.66;;;20.79;65.90
47913;BME280;33676;51.006;17.180;2023-04-16T12:58:08;100310.47;;;20.84;65.61
47913;BME280;33676;51.006;17.180;2023-04-16T13:00:39;100309.42;;;20.92;65.50
47913;BME280;33676;51.006;17.180;2023-04-16T13:03:08;100309.52;;;20.95;65.39
47913;BME280;33676;51.006;17.180;2023-04-16T13:05:36;100311.77;;;20.96;65.27
47913;BME280;33676;51.006;17.180;2023-04-16T13:08:05;100307.11;;;20.97;65.60
47913;BME280;33676;51.006;17.180;2023-04-16T13:10:34;100305.85;;;21.00;65.40
47913;BME280;33676;51.006;17.180;2023-04-16T13:13:03;100307.36;;;21.07;65.40
47913;BME280;33676;51.006;17.180;2023-04-16T13:15:31;100304.75;;;21.11;65.34
47913;BME280;33676;51.006;17.180;2023-04-16T13:17:59;100300.27;;;21.14;65.36
47913;BME280;33676;51.006;17.180;2023-04-16T13:20:28;100302.56;;;21.17;65.31
47913;BME280;33676;51.006;17.180;2023-04-16T13:22:56;100299.48;;;21.19;65.23
47913;BME280;33676;51.006;17.180;2023-04-16T13:25:25;100298.15;;;21.23;65.39